createdAt,value
2022-11-20T00:01:53.015Z,10.32
2022-11-20T00:04:20.130Z,10.28
2022-11-20T00:06:49.066Z,10.27
2022-11-20T00:09:15.931Z,10.25
2022-11-20T00:11:42.687Z,10.24
2022-11-20T00:14:10.867Z,10.23
2022-11-20T00:16:40.306Z,10.25
2022-11-20T00:19:07.404Z,10.27
2022-11-20T00:21:34.214Z,10.28
2022-11-20T00:24:01.199Z,10.30
2022-11-20T00:26:31.445Z,10.31
2022-11-20T00:28:59.571Z,10.34
2022-11-20T00:31:27.364Z,10.32
2022-11-20T00:33:54.286Z,10.31
2022-11-20T00:36:25.783Z,10.32
2022-11-20T00:38:57.424Z,10.34
2022-11-20T00:41:24.679Z,10.34
2022-11-20T00:43:53.085Z,10.33
2022-11-20T00:46:21.270Z,10.31
2022-11-20T00:48:48.309Z,10.33
2022-11-20T00:51:16.161Z,10.34
2022-11-20T00:53:44.463Z,10.35
2022-11-20T00:56:15.666Z,10.37
2022-11-20T00:58:49.398Z,10.37
2022-11-20T01:01:17.515Z,10.39
2022-11-20T01:03:54.923Z,10.38
2022-11-20T01:06:29.383Z,10.38
2022-11-20T01:08:57.545Z,10.36
2022-11-20T01:11:25.943Z,10.39
2022-11-20T01:13:53.864Z,10.39
2022-11-20T01:16:23.323Z,10.40
2022-11-20T01:18:51.570Z,10.39
2022-11-20T01:21:20.345Z,10.40
2022-11-20T01:23:47.887Z,10.41
2022-11-20T01:26:16.042Z,10.41
2022-11-20T01:28:43.199Z,10.42
2022-11-20T01:31:14.362Z,10.44
2022-11-20T01:33:42.485Z,10.44
2022-11-20T01:36:09.871Z,10.44
2022-11-20T01:38:37.199Z,10.43
2022-11-20T01:41:04.405Z,10.45
2022-11-20T01:43:32.978Z,10.45
2022-11-20T01:46:05.193Z,10.44
2022-11-20T01:48:52.339Z,10.46
2022-11-20T01:51:37.996Z,10.45
2022-11-20T01:54:07.480Z,10.47
2022-11-20T01:56:37.594Z,10.47
2022-11-20T01:59:09.379Z,10.46
2022-11-20T02:01:36.448Z,10.47
2022-11-20T02:04:06.342Z,10.50
2022-11-20T02:06:37.254Z,10.53
2022-11-20T02:09:04.114Z,10.54
2022-11-20T02:11:31.578Z,10.55
2022-11-20T02:13:59.081Z,10.56
2022-11-20T02:16:33.097Z,10.57
2022-11-20T02:19:03.373Z,10.54
2022-11-20T02:21:33.243Z,10.57
2022-11-20T02:24:04.622Z,10.59
2022-11-20T02:26:35.108Z,10.59
2022-11-20T02:29:05.971Z,10.61
2022-11-20T02:31:38.033Z,10.63
2022-11-20T02:34:05.250Z,10.66
2022-11-20T02:36:33.393Z,10.67
2022-11-20T02:39:01.615Z,10.68
2022-11-20T02:41:35.156Z,10.70
2022-11-20T02:44:01.994Z,10.70
2022-11-20T02:46:29.022Z,10.72
2022-11-20T02:48:56.093Z,10.72
2022-11-20T02:51:23.019Z,10.71
2022-11-20T02:53:50.105Z,10.67
2022-11-20T02:56:17.144Z,10.67
2022-11-20T02:58:43.943Z,10.66
2022-11-20T03:01:10.857Z,10.67
2022-11-20T03:03:37.736Z,10.70
2022-11-20T03:06:07.782Z,10.72
2022-11-20T03:08:34.781Z,10.74
2022-11-20T03:14:19.995Z,10.79
2022-11-20T03:16:47.254Z,10.77
2022-11-20T03:19:14.320Z,10.80
2022-11-20T03:21:41.231Z,10.81
2022-11-20T03:24:08.547Z,10.80
2022-11-20T03:26:35.332Z,10.81
2022-11-20T03:29:05.852Z,10.81
2022-11-20T03:31:34.046Z,10.80
2022-11-20T03:34:04.033Z,10.76
2022-11-20T03:36:31.497Z,10.76
2022-11-20T03:38:58.585Z,10.77
2022-11-20T03:41:26.693Z,10.79
2022-11-20T03:43:55.021Z,10.81
2022-11-20T03:46:22.014Z,10.81
2022-11-20T03:48:51.948Z,10.80
2022-11-20T03:51:23.484Z,10.81
2022-11-20T03:53:51.057Z,10.78
2022-11-20T03:56:19.447Z,10.76
2022-11-20T03:58:46.537Z,10.75
2022-11-20T04:01:17.768Z,10.73
2022-11-20T04:03:45.102Z,10.72
2022-11-20T04:06:19.400Z,10.68
2022-11-20T04:08:50.992Z,10.66
2022-11-20T04:11:21.791Z,10.64
2022-11-20T04:13:50.457Z,10.62
2022-11-20T04:16:20.377Z,10.59
2022-11-20T04:18:47.395Z,10.58
2022-11-20T04:21:14.237Z,10.56
2022-11-20T04:23:41.172Z,10.53
2022-11-20T04:26:09.301Z,10.53
2022-11-20T04:28:36.521Z,10.50
2022-11-20T04:31:06.025Z,10.47
2022-11-20T04:33:34.213Z,10.47
2022-11-20T04:36:08.968Z,10.45
2022-11-20T04:38:35.875Z,10.45
2022-11-20T04:41:03.555Z,10.43
2022-11-20T04:43:30.867Z,10.41
2022-11-20T04:45:58.419Z,10.40
2022-11-20T04:48:28.199Z,10.40
2022-11-20T04:50:55.256Z,10.42
2022-11-20T04:53:22.565Z,10.40
2022-11-20T04:55:49.737Z,10.42
2022-11-20T04:58:17.087Z,10.41
2022-11-20T05:01:20.848Z,10.38
2022-11-20T05:03:47.568Z,10.37
2022-11-20T05:06:15.871Z,10.37
2022-11-20T05:08:42.990Z,10.37
2022-11-20T05:11:10.973Z,10.36
2022-11-20T05:13:38.405Z,10.37
2022-11-20T05:16:06.549Z,10.37
2022-11-20T05:18:34.363Z,10.37
2022-11-20T05:21:01.567Z,10.36
2022-11-20T05:23:28.841Z,10.36
2022-11-20T05:25:59.117Z,10.36
2022-11-20T05:28:26.892Z,10.36
2022-11-20T05:30:54.914Z,10.36
2022-11-20T05:33:22.306Z,10.39
2022-11-20T05:35:49.732Z,10.40
2022-11-20T05:38:16.630Z,10.43
2022-11-20T05:40:43.409Z,10.42
2022-11-20T05:43:10.318Z,10.43
2022-11-20T05:45:37.148Z,10.48
2022-11-20T05:48:04.011Z,10.50
2022-11-20T05:50:31.482Z,10.51
2022-11-20T05:53:01.533Z,10.53
2022-11-20T05:55:28.741Z,10.55
2022-11-20T05:57:56.167Z,10.58
2022-11-20T06:00:23.613Z,10.60
2022-11-20T06:02:55.397Z,10.60
2022-11-20T06:05:22.243Z,10.61
2022-11-20T06:07:48.955Z,10.61
2022-11-20T06:10:15.948Z,10.60
2022-11-20T06:12:42.796Z,10.59
2022-11-20T06:15:09.770Z,10.59
2022-11-20T06:17:36.601Z,10.58
2022-11-20T06:20:03.524Z,10.60
2022-11-20T06:22:30.295Z,10.60
2022-11-20T06:28:18.263Z,10.62
2022-11-20T06:30:48.262Z,10.62
2022-11-20T06:33:15.219Z,10.60
2022-11-20T06:35:42.064Z,10.59
2022-11-20T06:38:08.835Z,10.60
2022-11-20T06:41:22.558Z,10.61
2022-11-20T06:43:50.895Z,10.62
2022-11-20T06:46:21.004Z,10.64
2022-11-20T06:48:50.916Z,10.64
2022-11-20T06:51:18.111Z,10.65
2022-11-20T06:53:44.860Z,10.69
2022-11-20T06:56:11.870Z,10.75
2022-11-20T06:58:38.614Z,10.77
2022-11-20T07:01:13.789Z,10.79
2022-11-20T07:04:21.277Z,10.81
2022-11-20T07:06:49.880Z,10.81
2022-11-20T07:09:17.601Z,10.81
2022-11-20T07:11:44.579Z,10.81
2022-11-20T07:14:11.653Z,10.80
2022-11-20T07:16:38.513Z,10.77
2022-11-20T07:19:08.402Z,10.78
2022-11-20T07:21:35.275Z,10.76
2022-11-20T07:24:02.063Z,10.76
2022-11-20T07:26:28.865Z,10.82
2022-11-20T07:28:55.804Z,10.82
2022-11-20T07:31:24.662Z,10.82
2022-11-20T07:33:51.513Z,10.83
2022-11-20T07:36:18.413Z,10.85
2022-11-20T07:38:45.208Z,10.87
2022-11-20T07:41:12.007Z,10.88
2022-11-20T07:43:41.373Z,10.88
2022-11-20T07:46:08.505Z,10.87
2022-11-20T07:48:35.449Z,10.87
2022-11-20T07:51:04.774Z,10.85
2022-11-20T07:53:31.548Z,10.87
2022-11-20T07:56:03.679Z,10.87
2022-11-20T07:58:31.210Z,10.89
2022-11-20T08:01:01.071Z,10.88
2022-11-20T08:03:28.097Z,10.90
2022-11-20T08:05:54.928Z,10.91
2022-11-20T08:08:22.722Z,10.91
2022-11-20T08:10:59.029Z,10.92
2022-11-20T08:13:44.704Z,10.93
2022-11-20T08:16:11.698Z,10.94
2022-11-20T08:18:38.640Z,10.95
2022-11-20T08:21:07.415Z,10.96
2022-11-20T08:23:39.622Z,10.99
2022-11-20T08:26:06.455Z,10.99
2022-11-20T08:28:36.106Z,11.01
2022-11-20T08:31:03.494Z,10.95
2022-11-20T08:33:31.211Z,10.93
2022-11-20T08:36:02.221Z,10.91
2022-11-20T08:38:35.046Z,10.94
2022-11-20T08:47:38.635Z,10.96
2022-11-20T08:50:05.723Z,10.95
2022-11-20T08:52:39.722Z,10.94
2022-11-20T08:55:07.523Z,10.91
2022-11-20T08:57:34.917Z,10.95
2022-11-20T09:00:06.405Z,10.96
2022-11-20T09:02:40.348Z,10.97
2022-11-20T09:05:07.826Z,10.95
2022-11-20T09:07:39.262Z,10.93
2022-11-20T09:10:23.515Z,10.96
2022-11-20T09:13:03.238Z,11.00
2022-11-20T09:15:31.637Z,10.99
2022-11-20T09:23:24.739Z,11.11
2022-11-20T09:28:37.388Z,11.17
2022-11-20T09:31:17.248Z,11.18
2022-11-20T09:42:01.416Z,11.08
2022-11-20T09:47:45.525Z,11.08
2022-11-20T09:50:34.286Z,11.07
2022-11-20T09:53:03.783Z,11.07
2022-11-20T09:55:32.344Z,11.05
2022-11-20T09:58:09.040Z,11.05
2022-11-20T10:00:46.608Z,11.02
2022-11-20T10:06:15.326Z,11.02
2022-11-20T10:09:02.564Z,11.00
2022-11-20T10:11:38.777Z,11.04
2022-11-20T10:14:28.199Z,11.03
2022-11-20T10:20:00.478Z,11.11
2022-11-20T10:22:29.525Z,11.18
2022-11-20T10:25:15.097Z,11.26
2022-11-20T10:27:41.834Z,11.34
2022-11-20T10:30:11.903Z,11.36
2022-11-20T10:32:43.628Z,11.38
2022-11-20T10:35:39.753Z,11.38
2022-11-20T10:38:13.001Z,11.42
2022-11-20T10:40:42.131Z,11.48
2022-11-20T10:43:18.468Z,11.53
2022-11-20T10:45:51.609Z,11.61
2022-11-20T10:48:23.310Z,11.68
2022-11-20T10:51:03.447Z,11.68
2022-11-20T10:53:52.200Z,11.69
2022-11-20T10:56:42.385Z,11.70
2022-11-20T10:59:37.500Z,11.67
2022-11-20T11:02:16.280Z,11.61
2022-11-20T11:05:03.603Z,11.65
2022-11-20T11:07:35.454Z,11.71
2022-11-20T11:10:02.354Z,11.75
2022-11-20T11:12:30.790Z,11.77
2022-11-20T11:15:01.471Z,11.73
2022-11-20T11:20:54.393Z,11.72
2022-11-20T11:23:30.750Z,11.76
2022-11-20T11:26:00.753Z,11.83
2022-11-20T11:28:29.246Z,11.89
2022-11-20T11:30:58.367Z,11.93
2022-11-20T11:33:32.570Z,11.96
2022-11-20T11:36:18.085Z,12.04
2022-11-20T11:38:45.385Z,12.05
2022-11-20T11:41:20.695Z,12.11
2022-11-20T11:44:13.860Z,12.18
2022-11-20T11:46:46.602Z,12.22
2022-11-20T11:49:14.801Z,12.26
2022-11-20T11:52:22.289Z,12.28
2022-11-20T11:54:56.368Z,12.33
2022-11-20T11:57:30.797Z,12.38
2022-11-20T11:59:58.171Z,12.43
2022-11-20T12:03:00.204Z,12.46
2022-11-20T12:05:27.243Z,12.48
2022-11-20T12:08:00.806Z,12.51
2022-11-20T12:10:30.498Z,12.55
2022-11-20T12:13:06.243Z,12.57
2022-11-20T12:15:35.357Z,12.58
2022-11-20T12:18:02.684Z,12.57
2022-11-20T12:20:36.589Z,12.63
2022-11-20T12:23:09.032Z,12.64
2022-11-20T12:25:39.660Z,12.64
2022-11-20T12:28:24.980Z,12.66
2022-11-20T12:31:11.878Z,12.74
2022-11-20T12:33:48.644Z,12.75
2022-11-20T12:36:34.216Z,12.77
2022-11-20T12:39:07.304Z,12.80
2022-11-20T12:41:56.329Z,12.80
2022-11-20T12:44:48.008Z,12.82
2022-11-20T12:47:31.452Z,12.88
2022-11-20T12:50:07.114Z,12.90
2022-11-20T12:52:40.674Z,12.90
2022-11-20T12:55:15.577Z,12.92
2022-11-20T12:58:00.779Z,12.95
2022-11-20T13:00:27.822Z,12.93
2022-11-20T13:02:58.320Z,12.95
2022-11-20T13:05:43.765Z,12.93
2022-11-20T13:08:16.716Z,12.93
2022-11-20T13:11:21.044Z,12.95
2022-11-20T13:14:00.129Z,12.95
2022-11-20T13:16:34.841Z,12.97
2022-11-20T13:19:05.840Z,12.98
2022-11-20T13:21:43.220Z,12.97
2022-11-20T13:24:27.266Z,12.98
2022-11-20T13:27:06.383Z,12.94
2022-11-20T13:29:34.251Z,12.89
2022-11-20T13:32:08.353Z,12.84
2022-11-20T13:34:36.792Z,12.82
2022-11-20T13:37:07.239Z,12.84
2022-11-20T13:39:35.673Z,12.83
2022-11-20T13:42:15.703Z,12.79
2022-11-20T13:44:52.212Z,12.79
2022-11-20T13:47:29.061Z,12.82
2022-11-20T13:50:00.605Z,12.83
2022-11-20T13:52:27.368Z,12.83
2022-11-20T13:55:02.968Z,12.83
2022-11-20T13:57:29.795Z,12.85
2022-11-20T14:00:06.105Z,12.78
2022-11-20T14:02:33.222Z,12.77
2022-11-20T14:05:01.841Z,12.76
2022-11-20T14:07:56.986Z,12.72
2022-11-20T14:10:32.362Z,12.72
2022-11-20T14:13:02.213Z,12.74
2022-11-20T14:15:31.244Z,12.78
2022-11-20T14:18:01.636Z,12.77
2022-11-20T14:20:32.548Z,12.74
2022-11-20T14:22:59.615Z,12.75
2022-11-20T14:25:32.218Z,12.77
2022-11-20T14:28:00.147Z,12.75
2022-11-20T14:30:28.586Z,12.74
2022-11-20T14:33:02.782Z,12.76
2022-11-20T14:35:32.422Z,12.77
2022-11-20T14:37:59.369Z,12.76
2022-11-20T14:40:26.171Z,12.72
2022-11-20T14:42:54.376Z,12.70
2022-11-20T14:45:21.943Z,12.72
2022-11-20T14:47:49.555Z,12.70
2022-11-20T14:50:16.342Z,12.71
2022-11-20T14:52:55.478Z,12.73
2022-11-20T14:55:29.848Z,12.74
2022-11-20T14:58:02.361Z,12.76
2022-11-20T15:03:47.406Z,12.72
2022-11-20T15:06:14.303Z,12.76
2022-11-20T15:08:51.515Z,12.72
2022-11-20T15:11:19.598Z,12.70
2022-11-20T15:13:46.956Z,12.69
2022-11-20T15:16:27.287Z,12.67
2022-11-20T15:18:54.062Z,12.66
2022-11-20T15:21:22.327Z,12.64
2022-11-20T15:23:51.993Z,12.65
2022-11-20T15:26:24.855Z,12.65
2022-11-20T15:28:51.854Z,12.65
2022-11-20T15:31:25.396Z,12.61
2022-11-20T15:33:54.013Z,12.59
2022-11-20T15:39:39.171Z,12.55
2022-11-20T15:42:05.945Z,12.56
2022-11-20T15:44:32.685Z,12.56
2022-11-20T15:47:02.195Z,12.54
2022-11-20T15:52:53.211Z,12.51
2022-11-20T15:55:20.122Z,12.48
2022-11-20T15:57:47.047Z,12.43
2022-11-20T16:00:14.826Z,12.40
2022-11-20T16:03:20.439Z,12.40
2022-11-20T16:05:47.216Z,12.39
2022-11-20T16:08:14.096Z,12.33
2022-11-20T16:10:41.546Z,12.29
2022-11-20T16:13:33.042Z,12.28
2022-11-20T16:16:03.063Z,12.27
2022-11-20T16:18:33.511Z,12.22
2022-11-20T16:21:00.423Z,12.19
2022-11-20T16:23:27.180Z,12.19
2022-11-20T16:25:54.072Z,12.18
2022-11-20T16:28:22.754Z,12.14
2022-11-20T16:30:49.493Z,12.13
2022-11-20T16:33:17.162Z,12.14
2022-11-20T16:35:44.133Z,12.10
2022-11-20T16:38:11.098Z,12.10
2022-11-20T16:40:38.250Z,12.09
2022-11-20T16:43:12.589Z,12.09
2022-11-20T16:45:43.325Z,12.06
2022-11-20T16:48:14.141Z,12.07
2022-11-20T16:50:49.030Z,12.04
2022-11-20T16:53:16.075Z,12.02
2022-11-20T16:55:42.856Z,12.05
2022-11-20T16:58:09.876Z,12.05
2022-11-20T17:00:44.493Z,12.07
2022-11-20T17:03:14.222Z,12.08
2022-11-20T17:05:41.149Z,12.03
2022-11-20T17:08:07.927Z,12.04
2022-11-20T17:10:37.293Z,12.03
2022-11-20T17:13:04.043Z,12.00
2022-11-20T17:15:31.612Z,11.98
2022-11-20T17:17:58.611Z,11.97
2022-11-20T17:20:25.628Z,11.97
2022-11-20T17:23:00.292Z,11.98
2022-11-20T17:25:29.719Z,11.97
2022-11-20T17:34:32.990Z,11.89
2022-11-20T17:37:00.182Z,11.86
2022-11-20T17:39:30.086Z,11.84
2022-11-20T17:42:15.791Z,11.82
2022-11-20T17:44:45.838Z,11.83
2022-11-20T17:47:13.313Z,11.77
2022-11-20T17:49:40.152Z,11.72
2022-11-20T17:52:07.307Z,11.69
2022-11-20T17:54:34.419Z,11.69
2022-11-20T17:57:19.965Z,11.70
2022-11-20T17:59:47.248Z,11.67
2022-11-20T18:02:14.539Z,11.61
2022-11-20T18:04:41.408Z,11.58
2022-11-20T18:07:08.283Z,11.55
2022-11-20T18:09:35.351Z,11.53
2022-11-20T18:12:08.717Z,11.51
2022-11-20T18:14:36.810Z,11.50
2022-11-20T18:17:03.520Z,11.45
2022-11-20T18:19:32.880Z,11.41
2022-11-20T18:22:02.043Z,11.34
2022-11-20T18:24:29.360Z,11.33
2022-11-20T18:26:58.565Z,11.31
2022-11-20T18:29:28.010Z,11.31
2022-11-20T18:32:01.126Z,11.33
2022-11-20T18:34:29.101Z,11.33
2022-11-20T19:12:16.299Z,11.17
2022-11-20T19:17:24.426Z,11.10
2022-11-20T19:19:51.845Z,11.08
2022-11-20T19:22:18.607Z,11.18
2022-11-20T19:24:46.265Z,11.18
2022-11-20T19:27:13.253Z,11.12
2022-11-20T19:29:40.283Z,11.10
2022-11-20T19:32:07.152Z,11.09
2022-11-20T19:37:53.855Z,11.00
2022-11-20T19:40:20.665Z,10.99
2022-11-20T19:42:54.250Z,10.99
2022-11-20T19:45:21.163Z,10.95
2022-11-20T19:50:34.990Z,10.90
2022-11-20T19:53:01.963Z,10.88
2022-11-20T19:55:28.778Z,10.85
2022-11-20T19:57:56.971Z,10.82
2022-11-20T20:00:29.440Z,10.78
2022-11-20T20:02:59.523Z,10.72
2022-11-20T20:05:26.454Z,10.73
2022-11-20T20:07:53.334Z,10.73
2022-11-20T20:13:38.341Z,10.65
2022-11-20T20:16:12.383Z,10.64
2022-11-20T20:18:39.394Z,10.65
2022-11-20T20:21:13.147Z,10.65
2022-11-20T20:24:20.609Z,10.67
2022-11-20T20:26:47.636Z,10.71
2022-11-20T20:29:22.637Z,10.72
2022-11-20T20:31:49.655Z,10.67
2022-11-20T20:34:16.458Z,10.65
2022-11-20T20:36:43.415Z,10.65
2022-11-20T20:39:11.066Z,10.62
2022-11-20T20:41:38.054Z,10.64
2022-11-20T20:44:23.497Z,10.64
2022-11-20T20:46:52.425Z,10.63
2022-11-20T20:49:19.344Z,10.56
2022-11-20T20:51:46.181Z,10.56
2022-11-20T20:54:13.067Z,10.55
2022-11-20T20:56:39.908Z,10.57
2022-11-20T20:59:09.716Z,10.60
2022-11-20T21:01:38.908Z,10.63
2022-11-20T21:04:06.174Z,10.62
2022-11-20T21:06:33.073Z,10.60
2022-11-20T21:09:00.167Z,10.59
2022-11-20T21:11:27.076Z,10.59
2022-11-20T21:13:54.190Z,10.56
2022-11-20T21:16:23.143Z,10.56
2022-11-20T21:18:50.390Z,10.55
2022-11-20T21:21:36.251Z,10.54
2022-11-20T21:24:03.318Z,10.52
2022-11-20T21:26:30.284Z,10.46
2022-11-20T21:28:57.538Z,10.43
2022-11-20T21:31:27.601Z,10.42
2022-11-20T21:33:56.110Z,10.44
2022-11-20T21:36:24.189Z,10.47
2022-11-20T21:38:52.006Z,10.47
2022-11-20T21:41:51.015Z,10.42
2022-11-20T21:47:59.526Z,10.39
2022-11-20T21:50:44.866Z,10.38
2022-11-20T21:53:39.473Z,10.38
2022-11-20T21:56:07.544Z,10.37
2022-11-20T21:58:35.618Z,10.32
2022-11-20T22:01:12.816Z,10.28
2022-11-20T22:03:39.864Z,10.23
2022-11-20T22:06:07.766Z,10.16
2022-11-20T22:08:36.273Z,10.08
2022-11-20T22:11:07.638Z,10.11
2022-11-20T22:16:36.356Z,10.16
2022-11-20T22:19:04.174Z,10.16
2022-11-20T22:22:21.063Z,10.14
2022-11-20T22:24:47.929Z,10.06
2022-11-20T22:27:14.865Z,10.02
2022-11-20T22:29:41.943Z,9.98
2022-11-20T22:32:10.796Z,9.95
2022-11-20T22:35:21.604Z,9.93
2022-11-20T22:37:51.164Z,9.83
2022-11-20T22:40:18.351Z,9.76
2022-11-20T22:42:54.250Z,9.76
2022-11-20T22:45:21.242Z,9.74
2022-11-20T22:47:48.067Z,9.69
2022-11-20T22:50:14.914Z,9.67
2022-11-20T22:52:57.869Z,9.60
2022-11-20T22:55:24.882Z,9.58
2022-11-20T22:57:51.670Z,9.51
2022-11-20T23:00:18.897Z,9.50
2022-11-20T23:02:56.192Z,9.58
2022-11-20T23:05:23.148Z,9.61
2022-11-20T23:07:49.977Z,9.64
2022-11-20T23:10:17.014Z,9.64
2022-11-20T23:12:57.639Z,9.65
2022-11-20T23:15:33.522Z,9.67
2022-11-20T23:18:02.582Z,9.71
2022-11-20T23:20:31.757Z,9.76
2022-11-20T23:22:59.602Z,9.80
2022-11-20T23:25:29.545Z,9.76
2022-11-20T23:27:56.497Z,9.75
2022-11-20T23:30:23.306Z,9.74
2022-11-20T23:32:57.649Z,9.74
2022-11-20T23:35:24.492Z,9.72
2022-11-20T23:37:51.285Z,9.71
2022-11-20T23:40:18.164Z,9.69
2022-11-20T23:43:15.547Z,9.57
2022-11-20T23:45:47.205Z,9.56
2022-11-20T23:48:14.641Z,9.58
2022-11-20T23:50:42.078Z,9.58
2022-11-20T23:53:27.415Z,9.57
2022-11-20T23:55:58.104Z,9.58
2022-11-20T23:58:28.630Z,9.61
